Latest Weather Observations for Cleve Airport

IDS60801

Issued at 12:32 pm CST Sunday 19 April 2015 (issued every 30 minutes, with the page automatically refreshed every 10 minutes)

About weather observations | Map of weather stations | Latest weather observations for SA | Other Formats
Station Details ID: 018116 Name: CLEVE AERODROME Lat: -33.71 Lon: 136.50 Height: 175.0 m
Data from the previous 72 hours. | See also: Recent months at Cleve Airport
Date/Time
CST
Temp
°C
App
Temp
°C
Dew
Point
Rel
Hum
%
Delta-T
°C
Wind Press
QNH
hPa
Press
MSL
hPa
Rain
since 9 am
mm
Dir
 
Spd
km/h
Gust
km/h
Spd
kts
Gust
kts
19/12:30pm 14.5 7.8 5.6 55 4.2 SE 30 44 16 24 1033.4 - 0.0
19/12:00pm 14.5 7.1 5.0 53 4.4 SSE 33 41 18 22 1033.6 1033.3 0.0
19/11:30am 13.0 5.9 5.4 60 3.6 SE 32 41 17 22 1033.8 - 0.0
19/11:00am 14.4 7.4 7.0 61 3.6 SE 33 43 18 23 1033.7 - 0.0
19/10:30am 13.2 6.2 6.8 65 3.1 SSE 33 41 18 22 1033.7 - 0.0
19/10:00am 13.4 6.3 6.3 62 3.4 SE 33 43 18 23 1033.6 - 0.0
19/09:56am 13.0 5.8 5.9 62 3.4 SE 33 43 18 23 1033.6 - 0.0
19/09:30am 11.6 8.4 8.3 80 1.6 SE 15 22 8 12 1033.5 - 0.0
19/09:00am 10.8 5.4 8.2 84 1.3 SSE 26 33 14 18 1033.0 1032.7 8.8
19/08:30am 11.2 6.7 7.1 76 2.0 SE 20 26 11 14 1032.3 - 8.8
19/08:00am 10.8 7.4 7.7 81 1.5 SSE 15 22 8 12 1031.6 - 8.8
19/07:30am 10.1 8.0 8.2 88 0.9 SSE 9 13 5 7 1031.0 - 8.8
19/07:00am 9.8 6.0 7.7 87 1.0 SSE 17 22 9 12 1030.8 - 8.8
19/06:30am 10.0 3.4 7.8 86 1.1 SE 32 37 17 20 1030.3 - 8.6
19/06:00am 10.1 5.1 8.0 87 1.0 S 24 32 13 17 1029.7 1029.4 8.6
19/05:30am 9.6 9.2 8.2 91 0.7 CALM 0 0 0 0 1029.1 - 8.6
19/05:00am 9.9 7.9 8.5 91 0.7 S 9 11 5 6 1028.6 - 8.6
19/04:30am 9.7 6.0 8.1 90 0.8 SW 17 24 9 13 1028.3 - 8.2
19/04:00am 9.6 6.2 7.7 88 0.9 SSW 15 20 8 11 1027.9 - 8.2
19/03:30am 9.6 5.8 7.7 88 0.9 SW 17 24 9 13 1027.7 - 8.2
19/03:00am 9.9 6.6 8.2 89 0.8 SW 15 22 8 12 1027.4 1027.1 8.2
19/02:30am 9.9 5.5 7.5 85 1.2 SW 20 32 11 17 1027.4 - 7.4
19/02:00am 9.2 5.7 7.3 88 0.9 WSW 15 19 8 10 1027.3 - 7.4
19/01:30am 9.5 6.5 7.6 88 0.9 WSW 13 17 7 9 1027.3 - 7.4
19/01:00am 9.4 6.3 7.3 87 1.0 W 13 15 7 8 1027.0 - 7.4
19/12:30am 10.1 7.1 7.5 84 1.3 SSW 13 17 7 9 1026.7 - 7.4
19/12:00am 10.8 7.1 8.0 83 1.4 SSW 17 22 9 12 1026.5 1026.2 7.4
 
Date/Time
CST
Temp
°C
App
Temp
°C
Dew
Point
Rel
Hum
%
Delta-T
°C
Wind Press
QNH
hPa
Press
MSL
hPa
Rain
since 9 am
mm
Dir
 
Spd
km/h
Gust
km/h
Spd
kts
Gust
kts
18/11:30pm 10.6 7.3 8.2 85 1.2 SW 15 19 8 10 1026.3 - 7.4
18/11:00pm 10.3 6.7 8.2 87 1.0 WSW 17 20 9 11 1026.3 - 7.4
18/10:30pm 10.3 6.6 8.1 86 1.1 WSW 17 19 9 10 1026.2 - 7.4
18/10:00pm 10.8 7.6 8.6 86 1.1 WSW 15 17 8 9 1025.9 - 7.4
18/09:30pm 11.4 7.9 8.8 84 1.3 SW 17 20 9 11 1025.5 - 7.4
18/09:00pm 11.9 8.7 9.8 87 1.1 SW 17 22 9 12 1025.1 1024.7 7.4
18/08:30pm 12.2 9.4 11.3 94 0.5 SW 17 28 9 15 1024.6 - 7.4
18/08:00pm 12.2 10.6 11.6 96 0.3 SW 11 19 6 10 1023.8 - 7.4
18/07:30pm 12.1 10.1 11.6 97 0.3 WSW 13 17 7 9 1023.4 - 7.4
18/07:00pm 11.9 9.2 11.6 98 0.2 SSW 17 26 9 14 1022.8 - 7.4
18/06:30pm 11.8 9.0 11.5 98 0.2 SSW 17 24 9 13 1022.3 - 7.2
18/06:00pm 12.6 9.7 12.3 98 0.2 SSW 19 28 10 15 1021.8 1021.5 6.2
18/05:30pm 12.8 8.3 12.5 98 0.2 SSW 28 39 15 21 1021.1 - 5.2
18/05:00pm 13.0 7.7 12.5 97 0.3 S 32 46 17 25 1020.6 - 5.0
18/04:53pm 13.4 9.0 12.9 97 0.3 S 28 46 15 25 1020.5 - 4.8
18/04:30pm 13.9 8.2 13.0 94 0.5 S 35 44 19 24 1019.9 - 3.4
18/04:00pm 16.9 13.1 12.4 75 2.5 W 24 33 13 18 1019.1 - 0.4
18/03:30pm 16.0 10.9 13.8 87 1.3 WSW 33 46 18 25 1019.1 - 0.4
18/03:17pm 16.0 10.2 14.0 88 1.1 WSW 37 48 20 26 1018.8 - 0.4
18/03:00pm 16.8 12.4 12.9 78 2.2 W 28 41 15 22 1018.7 1018.3 0.0
18/02:30pm 17.6 13.3 13.1 75 2.5 W 28 39 15 21 1018.4 - 0.0
18/02:00pm 18.4 13.1 12.4 68 3.4 W 32 43 17 23 1018.2 - 0.0
18/01:30pm 19.0 14.5 12.5 66 3.7 W 28 37 15 20 1018.4 - 0.0
18/01:00pm 18.7 14.4 13.1 70 3.2 W 28 39 15 21 1018.9 - 0.0
18/12:30pm 18.3 13.8 12.5 69 3.3 WNW 28 39 15 21 1019.0 - 0.0
18/12:00pm 15.7 13.1 13.7 88 1.1 WNW 20 33 11 18 1019.4 1019.0 0.0
18/11:30am 15.2 10.3 12.5 84 1.5 W 30 46 16 25 1020.1 - 0.0
18/11:00am 16.4 11.4 10.9 70 3.0 WNW 28 43 15 23 1020.1 - 0.0
18/10:30am 16.7 12.0 10.5 67 3.3 WNW 26 35 14 19 1020.0 - 0.0
18/10:00am 15.7 11.7 10.5 71 2.8 WNW 22 32 12 17 1020.1 - 0.0
18/09:30am 15.3 11.6 10.1 71 2.7 NW 20 32 11 17 1020.2 - 0.0
18/09:00am 14.1 9.8 9.3 73 2.5 NW 22 30 12 16 1020.1 1019.7 1.8
18/08:30am 14.4 10.1 9.4 72 2.6 NW 22 32 12 17 1019.9 - 1.8
18/08:00am 13.2 9.4 9.1 76 2.1 NW 19 24 10 13 1019.6 - 1.8
18/07:30am 12.0 7.9 7.9 76 2.0 NW 19 28 10 15 1019.2 - 1.8
18/07:00am 10.9 7.4 7.4 79 1.7 NW 15 19 8 10 1019.0 - 1.8
18/06:30am 10.6 6.8 7.5 81 1.5 NW 17 20 9 11 1018.7 - 1.8
18/06:00am 10.8 7.4 7.7 81 1.5 NW 15 20 8 11 1018.2 1017.9 1.8
18/05:30am 11.2 7.5 8.1 81 1.5 WNW 17 22 9 12 1018.2 - 1.8
18/05:00am 10.9 7.2 8.1 83 1.4 WNW 17 20 9 11 1018.1 - 1.8
18/04:30am 10.7 8.0 8.8 88 0.9 WNW 13 19 7 10 1017.7 - 1.8
18/04:00am 10.7 8.0 9.1 90 0.8 WNW 13 19 7 10 1017.6 - 1.8
18/03:30am 10.8 7.5 9.4 91 0.7 W 17 20 9 11 1017.6 - 1.8
18/03:00am 11.0 8.5 9.6 91 0.7 W 13 17 7 9 1017.8 1017.5 1.8
18/02:30am 11.5 9.1 10.1 91 0.7 W 13 17 7 9 1017.8 - 1.8
18/02:00am 12.1 9.8 10.3 89 0.9 W 13 19 7 10 1018.1 - 1.8
18/01:30am 12.5 9.8 10.4 87 1.1 W 15 20 8 11 1018.4 - 1.8
18/01:00am 13.1 10.6 11.2 88 1.0 WSW 15 19 8 10 1018.4 - 1.8
18/12:30am 13.1 11.0 11.2 88 1.0 W 13 17 7 9 1018.5 - 1.8
18/12:00am 13.2 11.6 11.4 89 1.0 WSW 11 13 6 7 1018.7 1018.3 1.8
 
Date/Time
CST
Temp
°C
App
Temp
°C
Dew
Point
Rel
Hum
%
Delta-T
°C
Wind Press
QNH
hPa
Press
MSL
hPa
Rain
since 9 am
mm
Dir
 
Spd
km/h
Gust
km/h
Spd
kts
Gust
kts
17/11:30pm 13.3 11.1 12.2 93 0.6 WSW 15 20 8 11 1019.0 - 1.8
17/11:00pm 13.8 11.5 12.9 94 0.5 SW 17 22 9 12 1019.2 - 1.8
17/10:30pm 13.7 12.0 12.6 93 0.6 WSW 13 17 7 9 1019.5 - 1.8
17/10:00pm 13.5 11.5 12.6 94 0.5 SW 15 20 8 11 1019.4 - 1.8
17/09:30pm 13.6 13.1 12.8 95 0.4 WSW 7 11 4 6 1019.3 - 1.8
17/09:00pm 13.4 12.9 12.6 95 0.4 WSW 7 9 4 5 1019.3 1018.9 1.8
17/08:30pm 13.5 10.7 12.7 95 0.4 SSW 19 24 10 13 1019.1 - 1.8
17/08:00pm 14.0 12.2 13.2 95 0.4 SSW 15 20 8 11 1018.8 - 1.8
17/07:30pm 13.9 11.7 13.3 96 0.3 SSW 17 22 9 12 1018.6 - 1.8
17/07:00pm 14.0 11.8 13.4 96 0.3 SSW 17 22 9 12 1018.2 - 1.8
17/06:30pm 14.0 11.5 13.4 96 0.3 S 19 22 10 12 1017.9 - 1.6
17/06:00pm 14.0 11.3 13.4 96 0.3 SSW 20 28 11 15 1017.6 1017.3 1.6
17/05:30pm 14.0 10.1 13.2 95 0.4 SSW 26 32 14 17 1017.2 - 1.6
17/05:00pm 14.5 11.4 13.5 94 0.6 SSW 22 28 12 15 1016.9 - 1.6
17/04:30pm 15.0 12.3 13.4 90 0.9 S 20 28 11 15 1016.7 - 1.4
17/04:00pm 15.4 12.4 13.8 90 0.9 S 22 28 12 15 1016.5 - 1.4
17/03:30pm 15.7 13.4 14.7 94 0.6 S 20 24 11 13 1016.5 - 1.4
17/03:00pm 15.3 13.0 14.7 96 0.3 S 20 26 11 14 1016.4 1016.1 1.4
17/02:30pm 14.9 13.2 14.6 98 0.2 SSE 17 22 9 12 1016.5 - 1.4
17/02:00pm 15.2 13.6 14.9 98 0.2 SE 17 22 9 12 1016.6 - 1.4
17/01:30pm 15.1 12.9 14.9 99 0.1 SSE 20 24 11 13 1016.7 - 1.4
17/01:00pm 14.7 12.3 14.5 99 0.1 SSE 20 26 11 14 1017.3 - 1.4
17/12:30pm 14.4 12.5 14.2 99 0.1 SSE 17 22 9 12 1017.7 - 1.2
17/12:00pm 14.4 12.9 14.2 99 0.1 SE 15 20 8 11 1018.5 1018.1 1.2
17/11:30am 14.4 12.5 14.2 99 0.1 SE 17 22 9 12 1018.9 - 1.0
17/11:00am 14.3 12.0 14.1 99 0.1 SE 19 24 10 13 1019.2 - 0.8
17/10:30am 14.3 12.0 14.1 99 0.1 SE 19 22 10 12 1019.4 - 0.6
17/10:00am 14.1 11.7 13.9 99 0.1 ESE 19 24 10 13 1019.6 - 0.2
17/09:30am 14.0 11.6 13.8 99 0.1 ESE 19 26 10 14 1019.9 - 0.2
17/09:00am 13.9 11.3 13.7 99 0.1 SE 20 26 11 14 1019.9 1019.5 25.0
17/08:30am 13.8 10.8 13.6 99 0.1 ESE 22 28 12 15 1020.0 - 24.8
17/08:00am 13.7 11.0 13.5 99 0.1 ESE 20 26 11 14 1019.9 - 24.2
17/07:30am 13.8 10.8 13.6 99 0.1 ESE 22 28 12 15 1019.8 - 23.6
17/07:00am 13.7 11.0 13.5 99 0.1 ESE 20 28 11 15 1019.5 - 22.2
17/06:30am 13.7 11.0 13.5 99 0.1 SE 20 30 11 16 1019.4 - 20.8
17/06:00am 13.6 10.5 13.3 98 0.2 ESE 22 30 12 16 1019.0 1018.6 19.8
17/05:30am 13.8 10.3 13.5 98 0.2 ESE 24 33 13 18 1019.0 - 17.8
17/05:00am 14.0 11.4 13.7 98 0.2 ESE 20 28 11 15 1019.1 - 15.0
17/04:30am 13.8 10.0 13.5 98 0.2 ESE 26 35 14 19 1018.8 - 14.2
17/04:00am 13.9 10.5 13.6 98 0.2 ESE 24 37 13 20 1018.8 - 14.2
17/03:30am 14.1 11.1 13.8 98 0.2 ESE 22 28 12 15 1019.1 - 14.2
17/03:00am 14.0 12.3 13.7 98 0.2 ESE 15 20 8 11 1019.7 1019.3 13.8
17/02:30am 13.8 11.0 13.3 97 0.3 ESE 20 24 11 13 1020.1 - 13.6
17/02:00am 13.8 11.6 13.3 97 0.3 ESE 17 24 9 13 1020.7 - 13.0
17/01:30am 13.7 11.5 13.2 97 0.3 ESE 17 20 9 11 1021.0 - 12.6
17/01:00am 13.7 11.5 13.2 97 0.3 ESE 17 20 9 11 1021.3 - 12.0
17/12:30am 13.7 11.4 13.1 96 0.3 E 17 22 9 12 1021.6 - 11.0
17/12:00am 13.8 11.0 13.2 96 0.3 ESE 20 26 11 14 1022.0 1021.7 10.0
 
Date/Time
CST
Temp
°C
App
Temp
°C
Dew
Point
Rel
Hum
%
Delta-T
°C
Wind Press
QNH
hPa
Press
MSL
hPa
Rain
since 9 am
mm
Dir
 
Spd
km/h
Gust
km/h
Spd
kts
Gust
kts
16/11:30pm 14.0 11.8 13.4 96 0.3 E 17 20 9 11 1022.4 - 9.0
16/11:00pm 14.0 11.8 13.4 96 0.3 E 17 20 9 11 1022.6 - 8.8
16/10:30pm 14.0 11.2 13.2 95 0.4 ESE 20 28 11 15 1022.6 - 8.8
16/10:00pm 14.2 11.2 13.6 96 0.3 ESE 22 26 12 14 1022.6 - 8.6
16/09:30pm 14.4 12.4 13.8 96 0.3 ESE 17 20 9 11 1023.0 - 8.4
16/09:00pm 14.3 12.6 13.7 96 0.3 ESE 15 19 8 10 1023.1 1022.8 8.2
16/08:30pm 14.6 12.6 14.0 96 0.3 ESE 17 22 9 12 1023.0 - 7.8
16/08:00pm 14.8 13.3 14.3 97 0.3 ESE 15 20 8 11 1023.1 - 7.6
16/07:30pm 14.8 12.5 14.2 96 0.3 ESE 19 22 10 12 1022.8 - 7.4
16/07:00pm 14.8 12.0 14.2 96 0.3 ESE 22 28 12 15 1022.6 - 7.2
16/06:30pm 14.8 12.5 14.0 95 0.5 ESE 19 22 10 12 1022.8 - 7.2
16/06:00pm 14.7 12.3 13.9 95 0.5 E 19 22 10 12 1022.7 1022.4 7.0
16/05:30pm 14.8 12.2 13.8 94 0.6 E 20 28 11 15 1022.7 - 6.6
16/05:00pm 15.0 11.7 13.9 93 0.6 E 24 30 13 16 1022.6 - 5.8
16/04:30pm 14.8 12.2 13.2 90 0.9 E 19 22 10 12 1022.8 - 5.6
16/04:00pm 14.9 11.4 13.3 90 0.9 ESE 24 32 13 17 1022.2 - 5.4
16/03:30pm 15.0 11.4 13.2 89 1.0 ESE 24 32 13 17 1022.6 - 5.4
16/03:00pm 15.3 12.2 13.3 88 1.1 ESE 22 28 12 15 1023.0 1022.7 5.4
16/02:30pm 15.4 13.0 13.9 91 0.9 ESE 19 22 10 12 1023.3 - 5.4
16/02:00pm 15.1 12.5 13.8 92 0.7 E 20 24 11 13 1023.7 - 5.4
16/01:30pm 14.7 12.0 13.4 92 0.7 E 20 26 11 14 1024.5 - 5.4
16/01:00pm 15.0 11.7 14.0 94 0.6 E 24 28 13 15 1024.4 - 4.8

Other Formats:

Comma delimited format used in spreadsheet applications
http://www.bom.gov.au/fwo/IDS60801/IDS60801.94662.axf

JavaScript Object Notation format (JSON) in row-major order
http://www.bom.gov.au/fwo/IDS60801/IDS60801.94662.json